map of HFT home
HFT - Airport
Location
City:  Hammerfest, Norway
ICAO:ENHF
IATA:HFT

Details
Type:Airport (Aerodrome, Airfield)
Latitude:7040'46"N (70.679444)
Longitude:2340'06"E (23.668333)
Elevation:799 ft (244 m)
Variation:12.34E (WMM2015v2 magnetic declination)
0.28 annual change
Runways:1
Longest:2625 × 66 ft (800 × 20 m)

Time
Time Zone:UTC+1 (DST+2)
Local Time:

Weather
METAR:ENHF 041350Z VRB03KT CAVOK M13/M19 Q1020 RMK WIND 1254FT 12009KT

Related Locations
Nearby:
Farthest:NZWD: 11603 mi / 18674 km
McMurdo Station [Williams Field], Ross Island, AQ

Find:

   beyond  
but within

Other Information
Maps:
NOTAMs:
Links:
Sources:

  
  • flag of Norway
  

Sectional Chart

Flight Planning
at skyvector.com

Satellite Image

Google Maps Satellite view

 

Copyright © 2004-2019 Karl L. Swartz. All rights reserved.
The Great Circle Mapper name and logo are trademarks of the Great Circle Mapper.
All other trademarks mentioned herein belong to their respective owners.
Please see credits for attibutions and further copyright information.

  Follow gcmap on Facebook Follow gcmap on Twitter GCmap on LinkedIn

hCard Microformat

Geo Microformat